Portada
METAR-TAF:

METAR-TAF

Aeroports :

Cayo Coco, Cuba

latitud: 22-27-40N, longitud: 078-19-42W, altitud: 4 m

Observació

L'informe es va fer fa 1 hora i 21 minuts, a les 01:50 UTC
Vent 5 kt del Nord/Nord-Est
Temperatura 23°C
Humitat 78%
Pressió 1017 hPa
Visibilitat: 9000 m
Núvols disperses a una alçada de 2000 ft

METAR: MUCC 300150Z 02005KT 9000 SCT020 23/19 Q1017

Hora: 22:11 (03:11 UTC)

Pronòstic

L'informe es va fer fa 4 hores i 11 minuts, a les 23:00 UTC
Pronòstic vàlid del 30 a les 00 UTC al 30 a les 24 UTC
Vent 3 kt amb direcció variable
Visibilitat: 9000 m
Núvols disperses a una alçada de 2000 ft
Evolucionant progressivament
l' 30 a les 15 UTC al 30 a les 17 UTC
Vent 12 kt del Nord-Est

TAF: MUCC 292300Z 3000/3024 VRB03KT 9000 SCT020 BECMG 3015/3017 05012KT

Observacions i pronòstics meteorològics de més de 4000 aeroports (METAR i TAF).

Les estacions disponibles són els punts grocs i vermells al mapa.

Posi el ratolí al punt desitjat per veure el nom de l'estació.

Feu clic per veure les observacions i els pronòstics meteorològics.

Per canviar el mapa: feu clic els botons verds amb una creu de color negre per apropar; al botó verd amb un guió per allunyar la imatge; o en les fletxes verdes per a mapes adjacents.


METAR-TAF: